Time;durP1;ratioP1;P1;durP2;ratioP2;P2;SDS_P1;SDS_P2;PMS_P1;PMS_P2;Temp;Humidity;BMP_temperature;BMP_pressure;BME280_temperature;BME280_humidity;BME280_pressure;Samples;Min_cycle;Max_cycle;Signal;HPM_P1;HPM_P2
2020/12/04 00:01:10;;;;;;;2.40;1.50;;;13.00;68.00;;;;;;5027226;28;20130;-74
2020/12/04 00:03:44;;;;;;;2.15;1.30;;;13.00;68.00;;;;;;4999913;28;20030;-76
2020/12/04 00:06:14;;;;;;;2.30;1.63;;;13.00;68.00;;;;;;5018381;28;20116;-74
2020/12/04 00:08:45;;;;;;;1.92;1.27;;;13.00;68.00;;;;;;5029653;28;20026;-74
2020/12/04 00:11:22;;;;;;;1.48;1.15;;;12.90;68.00;;;;;;5029301;28;20060;-74
2020/12/04 00:13:47;;;;;;;1.48;1.23;;;12.90;68.00;;;;;;5033562;28;20036;-74
2020/12/04 00:16:25;;;;;;;2.60;1.48;;;13.00;68.00;;;;;;5025418;28;20037;-74
2020/12/04 00:19:05;;;;;;;2.72;1.80;;;12.90;68.00;;;;;;5023073;28;20052;-74
2020/12/04 00:21:31;;;;;;;1.75;1.20;;;12.90;68.00;;;;;;5026324;28;20080;-74
2020/12/04 00:24:01;;;;;;;1.90;1.20;;;13.00;68.00;;;;;;5020979;28;20034;-74
2020/12/04 00:26:29;;;;;;;1.50;1.30;;;12.90;68.00;;;;;;5031597;28;20120;-75
2020/12/04 00:29:00;;;;;;;;;;;13.00;68.00;;;;;;5029876;28;20030;-75
2020/12/04 00:31:32;;;;;;;1.00;0.82;;;13.00;67.90;;;;;;5016809;28;19920;-75
2020/12/04 00:34:03;;;;;;;1.80;1.20;;;13.00;68.00;;;;;;5005282;28;20386;-74
2020/12/04 00:36:35;;;;;;;3.00;1.20;;;13.00;68.00;;;;;;5019904;28;20037;-75
2020/12/04 00:39:03;;;;;;;1.70;1.30;;;12.90;68.00;;;;;;5029454;28;20018;-75
2020/12/04 00:41:33;;;;;;;1.73;1.13;;;12.90;68.00;;;;;;5023767;28;20044;-76
2020/12/04 00:44:04;;;;;;;1.50;1.30;;;12.90;68.00;;;;;;5015464;28;20125;-74
2020/12/04 00:46:34;;;;;;;1.40;1.10;;;12.90;68.00;;;;;;5022349;28;20497;-74
2020/12/04 00:49:05;;;;;;;1.85;1.10;;;12.90;68.00;;;;;;5010009;28;20032;-74
2020/12/04 00:51:34;;;;;;;1.55;1.20;;;12.90;68.00;;;;;;5015992;28;20100;-74
2020/12/04 00:53:59;;;;;;;;;;;12.90;68.00;;;;;;5029408;28;20033;-74
2020/12/04 00:56:32;;;;;;;1.63;1.10;;;12.90;68.00;;;;;;5031787;28;19909;-74
2020/12/04 00:58:58;;;;;;;1.48;1.13;;;12.90;68.00;;;;;;5028632;28;20518;-74
2020/12/04 01:01:25;;;;;;;1.27;1.17;;;12.90;68.00;;;;;;5025179;28;20076;-75
2020/12/04 01:03:50;;;;;;;1.90;1.20;;;12.90;68.00;;;;;;5013284;28;20030;-74
2020/12/04 01:06:27;;;;;;;1.85;1.10;;;12.90;68.00;;;;;;5031718;28;20044;-74
2020/12/04 01:08:57;;;;;;;2.28;1.42;;;12.90;68.00;;;;;;5021698;28;20486;-74
2020/12/04 01:11:30;;;;;;;1.88;1.25;;;12.90;68.00;;;;;;5028490;28;20021;-75
2020/12/04 01:14:01;;;;;;;1.88;1.15;;;12.90;67.90;;;;;;5033181;28;20030;-74
2020/12/04 01:16:33;;;;;;;2.72;1.38;;;12.90;68.00;;;;;;5035026;28;20108;-74
2020/12/04 01:19:17;;;;;;;1.23;0.93;;;12.90;68.00;;;;;;5053881;28;20044;-74
2020/12/04 01:21:47;;;;;;;2.03;1.30;;;12.90;67.90;;;;;;5046792;28;20028;-74
2020/12/04 01:24:13;;;;;;;2.00;1.40;;;13.00;68.00;;;;;;5054211;28;20028;-74
2020/12/04 01:26:59;;;;;;;1.10;1.00;;;12.90;68.00;;;;;;5038609;28;20045;-76
2020/12/04 01:29:51;;;;;;;1.95;1.30;;;12.90;67.90;;;;;;5053082;28;20040;-74
2020/12/04 01:32:21;;;;;;;1.48;1.00;;;12.90;67.90;;;;;;5030273;28;20029;-74
2020/12/04 01:35:00;;;;;;;1.52;1.20;;;12.90;67.90;;;;;;5042339;28;20025;-75
2020/12/04 01:37:38;;;;;;;1.95;1.40;;;12.90;67.90;;;;;;5054478;28;20115;-74
2020/12/04 01:40:17;;;;;;;1.88;1.35;;;12.90;68.00;;;;;;5048206;28;20048;-74
2020/12/04 01:42:44;;;;;;;1.50;1.13;;;12.90;68.00;;;;;;5035529;28;20068;-74
2020/12/04 01:45:20;;;;;;;1.75;1.52;;;12.90;67.90;;;;;;5049241;28;20605;-75
2020/12/04 01:47:46;;;;;;;1.88;1.13;;;12.90;67.90;;;;;;5042069;28;20138;-75
2020/12/04 01:50:15;;;;;;;1.65;1.05;;;12.90;67.90;;;;;;5047582;28;20030;-75
2020/12/04 01:52:45;;;;;;;2.15;1.45;;;13.00;67.90;;;;;;5053126;28;20029;-74
2020/12/04 01:55:11;;;;;;;1.70;1.25;;;12.90;67.90;;;;;;5046777;28;20386;-74
2020/12/04 01:57:42;;;;;;;1.23;1.00;;;12.90;67.90;;;;;;5055704;28;20037;-74
2020/12/04 02:00:22;;;;;;;1.20;1.10;;;12.90;67.90;;;;;;5035787;28;20478;-74
2020/12/04 02:02:50;;;;;;;1.25;0.90;;;12.90;67.90;;;;;;5052741;28;20032;-74
2020/12/04 02:05:20;;;;;;;1.45;1.05;;;12.90;67.90;;;;;;5051260;28;20025;-76
2020/12/04 02:08:04;;;;;;;2.58;1.50;;;12.90;67.90;;;;;;5049551;28;20033;-74
2020/12/04 02:10:36;;;;;;;1.42;1.20;;;12.90;67.90;;;;;;5038229;28;20052;-74
2020/12/04 02:13:05;;;;;;;1.27;1.00;;;12.90;67.90;;;;;;5049339;28;20462;-78
2020/12/04 02:15:32;;;;;;;1.70;1.20;;;12.90;67.90;;;;;;5030701;28;20024;-75
2020/12/04 02:18:06;;;;;;;1.23;0.98;;;12.90;67.90;;;;;;5026833;28;20054;-74
2020/12/04 02:20:40;;;;;;;1.35;1.08;;;12.90;68.00;;;;;;5031436;28;20032;-74
2020/12/04 02:23:05;;;;;;;1.92;1.17;;;12.90;67.90;;;;;;5024871;28;20494;-74
2020/12/04 02:25:37;;;;;;;1.40;0.95;;;12.90;67.90;;;;;;5039122;28;20068;-76
2020/12/04 02:28:03;;;;;;;1.40;1.10;;;12.90;68.00;;;;;;5033695;28;20021;-75
2020/12/04 02:30:33;;;;;;;1.00;0.95;;;12.90;68.00;;;;;;5013422;28;20037;-74
2020/12/04 02:32:59;;;;;;;2.05;1.27;;;12.90;67.90;;;;;;5030965;28;20029;-77
2020/12/04 02:35:25;;;;;;;1.63;1.20;;;12.90;67.90;;;;;;5029733;28;20159;-75
2020/12/04 02:37:52;;;;;;;1.88;1.10;;;12.90;67.90;;;;;;5025389;28;20037;-74
2020/12/04 02:40:23;;;;;;;1.52;1.25;;;12.90;67.90;;;;;;5028182;28;20667;-78
2020/12/04 02:42:49;;;;;;;1.92;1.20;;;12.90;67.90;;;;;;5010685;28;20035;-74
2020/12/04 02:45:15;;;;;;;1.30;1.10;;;12.90;67.90;;;;;;5040356;28;20021;-74
2020/12/04 02:47:41;;;;;;;1.85;1.15;;;12.90;68.00;;;;;;5024177;28;20025;-74
2020/12/04 02:50:15;;;;;;;2.20;1.10;;;12.90;67.90;;;;;;5012999;28;20030;-73
2020/12/04 02:52:40;;;;;;;1.42;0.93;;;12.90;67.90;;;;;;5030704;28;20079;-76
2020/12/04 02:55:09;;;;;;;1.00;0.88;;;12.90;68.00;;;;;;5032999;28;20061;-74
2020/12/04 02:57:36;;;;;;;1.10;1.00;;;12.90;67.90;;;;;;5030427;28;20025;-74
2020/12/04 03:00:03;;;;;;;2.30;1.38;;;12.90;67.90;;;;;;5021832;28;20022;-74
2020/12/04 03:02:40;;;;;;;1.27;1.02;;;12.90;67.90;;;;;;5035975;28;20036;-74
2020/12/04 03:05:11;;;;;;;1.48;1.10;;;12.90;67.90;;;;;;5033520;28;20036;-74
2020/12/04 03:07:37;;;;;;;1.45;1.20;;;12.90;68.00;;;;;;5026073;28;20030;-74
2020/12/04 03:10:07;;;;;;;2.20;1.20;;;12.80;68.00;;;;;;5029748;28;21041;-74
2020/12/04 03:12:34;;;;;;;1.38;1.13;;;12.90;67.90;;;;;;5011187;28;20103;-74
2020/12/04 03:15:08;;;;;;;1.15;1.05;;;12.90;67.90;;;;;;5016145;28;20044;-74
2020/12/04 03:17:34;;;;;;;1.08;0.90;;;12.90;67.90;;;;;;5032250;28;20104;-74
2020/12/04 03:20:06;;;;;;;2.30;1.52;;;12.90;67.90;;;;;;5032976;28;20162;-74
2020/12/04 03:22:35;;;;;;;1.77;1.25;;;12.90;67.90;;;;;;5033065;28;20032;-74
2020/12/04 03:25:14;;;;;;;1.75;1.20;;;12.90;67.90;;;;;;5048495;28;20039;-74
2020/12/04 03:27:40;;;;;;;1.48;1.02;;;12.80;67.90;;;;;;5032319;28;20052;-74
2020/12/04 03:30:21;;;;;;;1.27;1.00;;;12.90;68.00;;;;;;5051194;28;20097;-75
2020/12/04 03:32:47;;;;;;;1.48;0.98;;;12.90;68.00;;;;;;5062302;28;20094;-74
2020/12/04 03:35:15;;;;;;;1.48;1.10;;;12.80;67.90;;;;;;5031664;28;20025;-74
2020/12/04 03:37:50;;;;;;;1.90;1.10;;;12.90;68.00;;;;;;5058252;28;20025;-74
2020/12/04 03:40:16;;;;;;;1.38;1.10;;;12.90;67.90;;;;;;5030687;28;20033;-74
2020/12/04 03:42:51;;;;;;;2.08;1.20;;;12.90;68.00;;;;;;5031215;28;20036;-74
2020/12/04 03:45:36;;;;;;;1.80;1.08;;;12.80;68.00;;;;;;5044669;28;20029;-74
2020/12/04 03:48:02;;;;;;;1.45;1.05;;;12.90;68.00;;;;;;5040130;28;20060;-74
2020/12/04 03:50:33;;;;;;;1.63;1.13;;;12.90;68.00;;;;;;5041400;28;20432;-74
2020/12/04 03:53:03;;;;;;;2.53;1.50;;;12.80;68.00;;;;;;5054944;28;20437;-75
2020/12/04 03:55:29;;;;;;;2.05;1.13;;;12.90;68.00;;;;;;5040092;28;20037;-74
2020/12/04 03:58:01;;;;;;;1.75;1.00;;;12.80;68.00;;;;;;5030754;28;20391;-74
2020/12/04 04:00:27;;;;;;;1.33;1.23;;;12.80;68.00;;;;;;5042783;28;20474;-74
2020/12/04 04:03:01;;;;;;;1.58;1.10;;;12.80;68.00;;;;;;5033514;28;20171;-74
2020/12/04 04:05:27;;;;;;;1.33;1.10;;;12.80;68.00;;;;;;5034368;28;20418;-75
2020/12/04 04:07:57;;;;;;;1.65;1.30;;;12.80;68.00;;;;;;5044157;28;20056;-74
2020/12/04 04:10:23;;;;;;;1.20;0.93;;;12.80;68.00;;;;;;5051915;28;20043;-74
2020/12/04 04:12:53;;;;;;;1.48;0.95;;;12.80;67.90;;;;;;5048844;28;20033;-78
2020/12/04 04:15:33;;;;;;;1.00;0.90;;;12.80;68.00;;;;;;5029740;28;20059;-74
2020/12/04 04:17:59;;;;;;;1.48;0.90;;;12.80;68.00;;;;;;5036830;28;20410;-74
2020/12/04 04:20:26;;;;;;;1.25;1.00;;;12.80;68.00;;;;;;5029310;28;20022;-76
2020/12/04 04:22:55;;;;;;;1.27;1.13;;;12.90;67.90;;;;;;5047852;28;20033;-74
2020/12/04 04:25:21;;;;;;;1.98;1.50;;;12.90;67.90;;;;;;5045780;28;20025;-76
2020/12/04 04:27:47;;;;;;;1.13;1.00;;;12.90;68.00;;;;;;5044595;28;20034;-74
2020/12/04 04:30:13;;;;;;;1.65;1.10;;;12.80;68.00;;;;;;5048596;28;20103;-75
2020/12/04 04:32:39;;;;;;;1.35;1.10;;;12.80;67.90;;;;;;5046272;28;20678;-75
2020/12/04 04:35:12;;;;;;;1.30;0.90;;;12.80;67.90;;;;;;5037624;28;20028;-76
2020/12/04 04:37:41;;;;;;;1.52;1.10;;;12.80;67.90;;;;;;5028510;28;20063;-76
2020/12/04 04:40:11;;;;;;;;;;;12.80;67.90;;;;;;5043656;28;20504;-75
2020/12/04 04:42:40;;;;;;;1.05;0.82;;;12.90;67.90;;;;;;5048797;28;19912;-74
2020/12/04 04:45:14;;;;;;;0.90;0.80;;;12.80;67.90;;;;;;5024091;28;20100;-75
2020/12/04 04:47:45;;;;;;;1.73;1.08;;;12.80;67.90;;;;;;5057151;28;20021;-75
2020/12/04 04:50:11;;;;;;;1.67;1.08;;;12.80;67.90;;;;;;5046637;28;20111;-74
2020/12/04 04:52:42;;;;;;;1.60;1.08;;;12.80;67.90;;;;;;5051168;28;20025;-74
2020/12/04 04:55:26;;;;;;;1.65;1.27;;;12.80;67.90;;;;;;5047592;28;20053;-74
2020/12/04 04:57:52;;;;;;;1.33;1.00;;;12.90;67.90;;;;;;5025689;28;20143;-74
2020/12/04 05:00:21;;;;;;;1.50;1.10;;;12.90;67.90;;;;;;5045041;28;20028;-74
2020/12/04 05:02:52;;;;;;;1.50;0.93;;;12.80;67.90;;;;;;5049552;28;20033;-76
2020/12/04 05:05:18;;;;;;;1.35;0.98;;;12.80;67.90;;;;;;5020432;28;20026;-75
2020/12/04 05:07:43;;;;;;;1.25;1.10;;;12.80;67.90;;;;;;5019768;28;20410;-75
2020/12/04 05:10:24;;;;;;;1.35;1.20;;;12.80;67.90;;;;;;5045510;28;20033;-74
2020/12/04 05:13:01;;;;;;;1.55;1.08;;;12.80;67.90;;;;;;5046569;28;20086;-77
2020/12/04 05:15:39;;;;;;;0.98;0.88;;;12.80;67.90;;;;;;5051592;28;20100;-76
2020/12/04 05:18:17;;;;;;;1.38;0.85;;;12.80;67.90;;;;;;5050198;28;20064;-75
2020/12/04 05:20:51;;;;;;;1.33;0.98;;;12.80;67.90;;;;;;5040484;28;20033;-74
2020/12/04 05:23:27;;;;;;;2.00;1.23;;;12.80;67.90;;;;;;5048630;28;20110;-77
2020/12/04 05:26:05;;;;;;;1.02;0.90;;;12.80;67.90;;;;;;5050817;28;20040;-78
2020/12/04 05:28:36;;;;;;;1.38;1.15;;;12.80;67.90;;;;;;5053367;28;20551;-79
2020/12/04 05:31:07;;;;;;;3.03;1.00;;;12.80;67.90;;;;;;5044679;28;20029;-74
2020/12/04 05:33:33;;;;;;;2.42;1.58;;;12.80;67.90;;;;;;5050543;28;20120;-75
2020/12/04 05:36:09;;;;;;;1.48;1.17;;;12.80;67.90;;;;;;5046966;28;20550;-76
2020/12/04 05:38:58;;;;;;;1.10;1.00;;;12.80;67.90;;;;;;5051728;28;20327;-77
2020/12/04 05:41:28;;;;;;;1.45;1.02;;;12.90;67.90;;;;;;5045290;28;20032;-75
2020/12/04 05:43:59;;;;;;;0.85;0.82;;;12.80;67.90;;;;;;5047879;28;20477;-76
2020/12/04 05:46:26;;;;;;;1.70;1.10;;;12.80;67.90;;;;;;5050207;28;20109;-76
2020/12/04 05:49:04;;;;;;;1.65;1.15;;;12.80;67.90;;;;;;5025602;28;20029;-76
2020/12/04 05:51:37;;;;;;;1.25;1.10;;;12.90;67.90;;;;;;5045933;28;20039;-74
2020/12/04 05:54:08;;;;;;;1.77;1.30;;;12.80;67.90;;;;;;5044322;28;20033;-75
2020/12/04 05:56:41;;;;;;;1.45;1.10;;;12.80;67.90;;;;;;5047803;28;20390;-76
2020/12/04 05:59:13;;;;;;;1.38;1.10;;;12.80;67.90;;;;;;5031982;28;20045;-76
2020/12/04 06:01:46;;;;;;;1.00;0.80;;;12.80;67.90;;;;;;5031030;28;20037;-76
2020/12/04 06:04:19;;;;;;;1.83;1.30;;;12.80;67.90;;;;;;5037075;28;20032;-75
2020/12/04 06:06:45;;;;;;;1.40;1.20;;;12.80;67.80;;;;;;5049235;28;20037;-75
2020/12/04 06:09:13;;;;;;;0.93;0.82;;;12.90;67.80;;;;;;5024137;28;20135;-75
2020/12/04 06:11:45;;;;;;;1.92;1.00;;;12.80;67.80;;;;;;5048100;28;20071;-74
2020/12/04 06:14:22;;;;;;;1.38;0.98;;;12.80;67.90;;;;;;5046593;28;20505;-75
2020/12/04 06:17:10;;;;;;;1.75;1.17;;;12.80;67.90;;;;;;5049985;28;20032;-77
2020/12/04 06:19:37;;;;;;;1.83;1.27;;;12.80;67.90;;;;;;5048101;28;20139;-75
2020/12/04 06:22:12;;;;;;;1.37;1.00;;;12.80;67.90;;;;;;5049981;28;20028;-74
2020/12/04 06:24:58;;;;;;;1.20;1.00;;;12.80;67.90;;;;;;5035699;28;20543;-77
2020/12/04 06:27:43;;;;;;;1.42;1.20;;;12.80;67.80;;;;;;5044929;28;20424;-75
2020/12/04 06:30:15;;;;;;;1.50;1.08;;;12.80;67.80;;;;;;5046272;28;20042;-74
2020/12/04 06:32:51;;;;;;;1.55;1.20;;;12.80;67.80;;;;;;5049305;28;20493;-76
2020/12/04 06:35:39;;;;;;;1.08;0.90;;;12.90;67.90;;;;;;5035847;28;21519;-75
2020/12/04 06:38:05;;;;;;;1.73;1.05;;;12.80;67.80;;;;;;5047596;28;20057;-75
2020/12/04 06:40:31;;;;;;;1.60;1.00;;;12.90;67.80;;;;;;5049050;28;20033;-74
2020/12/04 06:43:21;;;;;;;3.15;1.48;;;12.80;67.80;;;;;;5021460;28;20033;-74
2020/12/04 06:45:51;;;;;;;1.20;0.93;;;12.80;67.80;;;;;;5044647;28;20084;-74
2020/12/04 06:48:22;;;;;;;1.23;0.95;;;12.90;67.80;;;;;;5048609;28;20029;-74
2020/12/04 06:50:49;;;;;;;1.20;0.90;;;12.80;67.80;;;;;;5045375;28;20025;-75
2020/12/04 06:53:19;;;;;;;2.05;1.40;;;12.90;67.80;;;;;;5046385;28;20026;-75
2020/12/04 06:55:48;;;;;;;1.98;0.98;;;12.80;67.80;;;;;;5039603;28;20492;-74
2020/12/04 06:58:19;;;;;;;1.35;0.95;;;12.80;67.80;;;;;;5047401;28;20021;-75
2020/12/04 07:00:50;;;;;;;1.13;0.90;;;12.80;67.80;;;;;;5047301;28;20036;-76
2020/12/04 07:03:20;;;;;;;0.98;0.80;;;12.90;67.80;;;;;;5047550;28;20021;-75
2020/12/04 07:06:09;;;;;;;2.42;1.40;;;12.90;67.70;;;;;;5048291;28;20076;-75
2020/12/04 07:08:39;;;;;;;1.33;1.08;;;12.80;67.70;;;;;;5028452;28;20035;-74
2020/12/04 07:11:10;;;;;;;1.40;1.17;;;12.90;67.70;;;;;;5045876;28;20120;-75
2020/12/04 07:13:41;;;;;;;1.35;1.13;;;12.90;67.70;;;;;;5048826;28;20036;-74
2020/12/04 07:16:21;;;;;;;1.20;0.90;;;12.90;67.70;;;;;;5042961;28;20025;-74
2020/12/04 07:18:53;;;;;;;1.45;1.20;;;12.80;67.70;;;;;;5038861;28;20131;-74
2020/12/04 07:21:26;;;;;;;1.45;0.93;;;12.90;67.60;;;;;;5036405;28;20025;-74
2020/12/04 07:24:05;;;;;;;1.52;1.00;;;12.90;67.60;;;;;;5039897;28;20482;-75
2020/12/04 07:26:32;;;;;;;1.17;1.05;;;12.90;67.60;;;;;;5037831;28;20038;-74
2020/12/04 07:29:02;;;;;;;1.77;1.35;;;12.90;67.60;;;;;;5044401;28;20061;-74
2020/12/04 07:31:32;;;;;;;0.90;0.80;;;12.80;67.60;;;;;;5047256;28;20045;-75
2020/12/04 07:34:03;;;;;;;1.35;1.10;;;12.90;67.60;;;;;;5047920;28;20510;-75
2020/12/04 07:36:29;;;;;;;1.08;0.90;;;12.90;67.60;;;;;;5034679;28;20036;-75
2020/12/04 07:38:57;;;;;;;1.45;0.93;;;12.90;67.60;;;;;;5032799;28;20060;-75
2020/12/04 07:41:24;;;;;;;1.08;0.90;;;12.90;67.60;;;;;;5047134;28;20033;-76
2020/12/04 07:43:54;;;;;;;1.45;1.10;;;12.90;67.60;;;;;;5044681;28;20044;-74
2020/12/04 07:46:23;;;;;;;1.65;1.08;;;12.90;67.50;;;;;;5049219;28;20057;-76
2020/12/04 07:48:58;;;;;;;2.20;1.10;;;12.90;67.50;;;;;;5028040;28;20036;-78
2020/12/04 07:51:30;;;;;;;1.48;1.10;;;12.90;67.50;;;;;;5043981;28;20048;-76
2020/12/04 07:53:58;;;;;;;1.83;1.10;;;12.90;67.50;;;;;;5042828;28;20449;-74
2020/12/04 07:56:30;;;;;;;1.05;0.95;;;12.90;67.40;;;;;;5027746;28;20449;-77
2020/12/04 07:59:05;;;;;;;1.08;0.90;;;12.90;67.40;;;;;;5042225;28;20087;-75
2020/12/04 08:01:47;;;;;;;1.35;1.10;;;12.90;67.50;;;;;;5045123;28;20123;-74
2020/12/04 08:04:28;;;;;;;1.17;1.08;;;12.90;67.40;;;;;;5046515;28;20029;-80
2020/12/04 08:07:12;;;;;;;1.30;1.00;;;12.90;67.40;;;;;;5026012;28;20045;-74
2020/12/04 08:09:44;;;;;;;1.45;1.05;;;13.00;67.40;;;;;;5042257;28;20021;-78
2020/12/04 08:12:20;;;;;;;1.27;1.02;;;12.90;67.40;;;;;;5047061;28;20032;-75
2020/12/04 08:14:53;;;;;;;1.45;1.00;;;13.00;67.40;;;;;;5046358;28;20397;-79
2020/12/04 08:17:30;;;;;;;1.48;0.93;;;12.90;67.40;;;;;;5043821;28;20415;-75
2020/12/04 08:19:57;;;;;;;1.15;1.00;;;12.90;67.30;;;;;;5038146;28;20036;-75
2020/12/04 08:22:27;;;;;;;1.25;0.93;;;13.00;67.30;;;;;;5043331;28;20029;-75
2020/12/04 08:25:05;;;;;;;1.55;1.05;;;13.00;67.30;;;;;;5046403;28;20032;-74
2020/12/04 08:27:40;;;;;;;;;;;13.00;67.30;;;;;;5046212;28;20025;-78
2020/12/04 08:30:16;;;;;;;1.35;1.20;;;13.00;67.30;;;;;;5041474;28;19924;-75
2020/12/04 08:32:46;;;;;;;1.30;1.00;;;13.00;67.30;;;;;;5021848;28;20043;-77
2020/12/04 08:35:32;;;;;;;1.10;0.82;;;13.00;67.30;;;;;;5047373;28;20036;-75
2020/12/04 08:38:30;;;;;;;1.15;1.05;;;13.00;67.20;;;;;;5039461;28;20036;-76
2020/12/04 08:50:03;;;;;;;1.23;1.00;;;13.00;67.20;;;;;;4200454;23;20245;-73
2020/12/04 08:52:51;;;;;;;1.20;0.80;;;13.00;67.20;;;;;;4976109;28;20055;-75
2020/12/04 08:55:26;;;;;;;1.40;1.03;;;13.00;67.10;;;;;;4940020;28;20043;-75
2020/12/04 08:57:59;;;;;;;1.33;1.02;;;13.00;67.10;;;;;;4967836;28;20038;-75
2020/12/04 09:00:32;;;;;;;1.05;0.77;;;13.00;67.00;;;;;;4973206;28;20065;-75
2020/12/04 09:03:14;;;;;;;1.45;1.13;;;13.10;67.00;;;;;;4972918;28;20397;-74
2020/12/04 09:05:40;;;;;;;1.17;0.90;;;13.10;67.00;;;;;;4955768;28;20058;-74
2020/12/04 09:08:18;;;;;;;1.58;1.33;;;13.10;67.00;;;;;;4973555;28;20030;-74
2020/12/04 09:10:44;;;;;;;1.00;0.80;;;13.10;67.00;;;;;;4973640;28;20034;-74
2020/12/04 09:13:24;;;;;;;0.90;0.85;;;13.10;67.00;;;;;;4973661;28;20038;-74
2020/12/04 09:16:03;;;;;;;0.90;0.88;;;13.10;66.90;;;;;;4969645;28;20033;-75
2020/12/04 09:18:43;;;;;;;1.45;1.20;;;13.00;67.00;;;;;;4974278;28;20490;-76
2020/12/04 09:21:16;;;;;;;1.27;0.90;;;13.10;66.90;;;;;;4971046;28;20030;-74
2020/12/04 09:23:42;;;;;;;1.52;1.00;;;13.10;67.00;;;;;;4952759;28;20031;-73
2020/12/04 09:26:08;;;;;;;1.13;0.80;;;13.10;67.00;;;;;;4956676;28;20045;-74
2020/12/04 09:28:39;;;;;;;1.27;1.13;;;13.10;67.00;;;;;;4958798;28;20150;-75
2020/12/04 09:31:10;;;;;;;1.15;1.00;;;13.10;66.90;;;;;;4979065;28;20031;-75
2020/12/04 09:33:41;;;;;;;1.00;0.90;;;13.10;66.90;;;;;;4948976;28;20441;-74
2020/12/04 09:36:07;;;;;;;1.25;0.90;;;13.10;66.90;;;;;;4979183;28;20031;-74
2020/12/04 09:38:40;;;;;;;1.38;0.98;;;13.10;66.90;;;;;;4981516;28;20030;-77
2020/12/04 09:41:09;;;;;;;1.55;0.90;;;13.10;66.90;;;;;;4978287;28;20023;-74
2020/12/04 09:43:34;;;;;;;0.93;0.82;;;13.10;66.80;;;;;;4956596;28;20030;-76
2020/12/04 09:46:06;;;;;;;2.65;1.80;;;13.10;66.80;;;;;;4968301;28;20085;-77
2020/12/04 09:48:40;;;;;;;3.08;2.00;;;13.10;67.40;;;;;;4978966;28;20039;-79
2020/12/04 09:51:06;;;;;;;5.68;2.65;;;13.20;67.60;;;;;;4954465;28;20109;-77
2020/12/04 09:53:36;;;;;;;3.55;2.00;;;13.30;67.60;;;;;;4958960;28;20468;-76
2020/12/04 09:56:06;;;;;;;5.60;2.80;;;13.40;67.50;;;;;;4955457;28;20404;-77
2020/12/04 09:58:38;;;;;;;3.97;2.25;;;13.40;67.40;;;;;;4973931;28;20030;-76
2020/12/04 10:01:09;;;;;;;7.15;3.25;;;13.50;67.60;;;;;;4955404;28;20034;-77
2020/12/04 10:03:37;;;;;;;3.95;2.40;;;13.50;67.70;;;;;;4976048;28;20062;-76
2020/12/04 10:06:08;;;;;;;4.38;2.28;;;13.50;67.50;;;;;;4972777;28;20058;-76
2020/12/04 10:08:34;;;;;;;6.38;2.63;;;13.60;67.40;;;;;;4956473;28;20129;-76
2020/12/04 10:11:02;;;;;;;4.63;2.33;;;13.60;67.40;;;;;;4972605;28;20524;-77
2020/12/04 10:13:34;;;;;;;5.40;2.78;;;13.60;67.50;;;;;;4973941;28;20042;-76
2020/12/04 10:16:06;;;;;;;2.67;2.25;;;13.60;67.50;;;;;;4964440;28;20026;-77
2020/12/04 10:18:37;;;;;;;4.50;2.42;;;13.60;67.50;;;;;;4955574;28;20031;-78
2020/12/04 10:21:07;;;;;;;5.97;2.60;;;13.60;67.50;;;;;;4974264;28;20061;-77
2020/12/04 10:23:34;;;;;;;5.10;2.75;;;13.60;67.50;;;;;;4975434;28;20027;-77
2020/12/04 10:26:03;;;;;;;5.05;2.83;;;13.60;67.50;;;;;;4957136;28;20037;-77
2020/12/04 10:28:34;;;;;;;5.72;2.58;;;13.60;67.50;;;;;;4956975;28;20034;-75
2020/12/04 10:31:25;;;;;;;3.75;2.35;;;13.60;67.60;;;;;;4974705;28;20034;-73
2020/12/04 10:33:51;;;;;;;6.32;2.80;;;13.50;67.30;;;;;;4973526;28;20023;-74
2020/12/04 10:36:30;;;;;;;4.90;2.50;;;13.50;67.30;;;;;;4968977;28;20035;-76
2020/12/04 10:39:01;;;;;;;5.07;2.50;;;13.40;67.40;;;;;;4952468;28;20033;-78
2020/12/04 10:41:33;;;;;;;4.75;2.40;;;13.40;67.40;;;;;;4965859;28;20022;-74
2020/12/04 10:44:14;;;;;;;4.32;2.55;;;13.40;67.50;;;;;;4973174;28;20380;-75
2020/12/04 10:46:44;;;;;;;3.58;2.33;;;13.30;67.60;;;;;;4957164;28;20030;-74
2020/12/04 10:49:13;;;;;;;3.17;2.00;;;13.30;67.60;;;;;;4974828;28;20049;-74
2020/12/04 10:51:55;;;;;;;4.55;2.40;;;13.30;67.70;;;;;;4970020;28;20048;-74
2020/12/04 10:54:22;;;;;;;3.63;2.30;;;13.30;67.70;;;;;;4973202;28;20027;-74
2020/12/04 10:57:07;;;;;;;5.20;2.50;;;13.30;67.70;;;;;;4946999;28;20464;-75
2020/12/04 10:59:43;;;;;;;4.38;2.50;;;13.30;67.70;;;;;;4972458;28;20031;-75
2020/12/04 11:02:38;;;;;;;5.78;2.65;;;13.30;67.70;;;;;;4956064;28;20117;-75
2020/12/04 11:07:58;;;;;;;4.97;2.38;;;13.30;67.60;;;;;;4967429;28;20460;-76
2020/12/04 11:10:24;;;;;;;5.07;2.40;;;13.30;67.60;;;;;;4951142;28;20073;-75
2020/12/04 11:12:56;;;;;;;5.32;2.92;;;13.30;67.60;;;;;;4977598;28;20026;-75
2020/12/04 11:15:22;;;;;;;4.10;2.53;;;13.30;67.50;;;;;;4958044;28;20031;-76
2020/12/04 11:17:48;;;;;;;4.68;2.53;;;13.30;67.50;;;;;;4959166;28;20407;-75
2020/12/04 11:20:16;;;;;;;4.43;2.78;;;13.30;67.50;;;;;;4972720;28;20043;-75
2020/12/04 11:22:44;;;;;;;4.40;2.77;;;13.30;67.50;;;;;;4963346;28;20027;-74
2020/12/04 11:25:10;;;;;;;4.65;2.17;;;13.30;67.50;;;;;;4975322;28;20104;-74
2020/12/04 11:27:44;;;;;;;6.90;2.60;;;13.30;67.40;;;;;;4986607;28;20531;-75
2020/12/04 11:30:12;;;;;;;5.25;2.10;;;13.30;67.30;;;;;;4967504;28;20032;-75
2020/12/04 11:32:39;;;;;;;4.32;2.15;;;13.30;67.30;;;;;;4973808;28;20494;-75
2020/12/04 11:35:08;;;;;;;3.38;2.28;;;13.30;67.30;;;;;;4943405;28;20042;-75
2020/12/04 11:37:41;;;;;;;5.03;2.35;;;13.30;67.20;;;;;;4971546;28;20037;-75
2020/12/04 11:40:11;;;;;;;4.55;2.50;;;13.30;67.20;;;;;;4943222;28;20034;-75
2020/12/04 11:42:43;;;;;;;6.80;2.35;;;13.30;67.10;;;;;;4956774;28;20082;-75
2020/12/04 11:45:22;;;;;;;4.25;2.38;;;13.30;67.10;;;;;;4947477;28;20046;-75
2020/12/04 11:47:53;;;;;;;;;;;13.30;67.10;;;;;;4971798;28;20042;-76
2020/12/04 11:50:19;;;;;;;4.03;2.40;;;13.40;67.00;;;;;;4950641;28;20001;-74
2020/12/04 11:52:45;;;;;;;3.05;2.08;;;13.40;67.00;;;;;;4967319;28;20047;-74
2020/12/04 11:55:13;;;;;;;4.10;2.30;;;13.40;67.00;;;;;;4952893;28;20027;-75
2020/12/04 11:57:39;;;;;;;4.10;2.28;;;13.40;67.00;;;;;;4974446;28;20027;-74
2020/12/04 12:00:13;;;;;;;5.43;2.35;;;13.30;67.00;;;;;;4955944;28;21187;-75
2020/12/04 12:02:39;;;;;;;3.78;2.28;;;13.40;66.90;;;;;;4971043;28;20030;-74
2020/12/04 12:05:06;;;;;;;4.88;2.63;;;13.40;66.90;;;;;;4971902;28;20030;-75
2020/12/04 12:07:32;;;;;;;3.75;2.30;;;13.40;66.90;;;;;;4954500;28;20082;-77
2020/12/04 12:10:02;;;;;;;2.85;2.08;;;13.40;66.90;;;;;;4968355;28;21292;-76
2020/12/04 12:12:31;;;;;;;6.50;3.10;;;13.40;67.00;;;;;;4952699;28;20037;-75
2020/12/04 12:15:04;;;;;;;3.30;2.25;;;13.40;67.00;;;;;;4955659;28;20031;-75
2020/12/04 12:17:35;;;;;;;4.32;2.38;;;13.40;66.90;;;;;;4975709;28;20140;-75
2020/12/04 12:20:03;;;;;;;4.15;2.55;;;13.40;66.90;;;;;;4968845;28;20381;-75
2020/12/04 12:22:32;;;;;;;5.78;2.47;;;13.40;66.90;;;;;;4967602;28;20035;-75
2020/12/04 12:25:02;;;;;;;2.83;2.00;;;13.40;66.90;;;;;;4950638;28;20125;-74
2020/12/04 12:27:32;;;;;;;3.70;2.20;;;13.40;66.90;;;;;;4958759;28;20045;-77
2020/12/04 12:29:58;;;;;;;3.75;2.17;;;13.30;66.90;;;;;;4972632;28;20043;-75
2020/12/04 12:32:28;;;;;;;5.68;2.25;;;13.40;67.00;;;;;;4970064;28;20030;-75
2020/12/04 12:34:59;;;;;;;2.53;2.00;;;13.40;66.90;;;;;;4971380;28;20023;-76
2020/12/04 12:37:31;;;;;;;4.10;2.20;;;13.40;66.90;;;;;;4946217;28;20196;-75
2020/12/04 12:39:58;;;;;;;4.03;2.45;;;13.40;66.90;;;;;;4964831;28;20465;-76
2020/12/04 12:42:28;;;;;;;2.90;2.03;;;13.40;66.80;;;;;;4972999;28;20030;-77
2020/12/04 12:44:59;;;;;;;3.40;2.20;;;13.40;66.80;;;;;;4946207;28;20354;-75
2020/12/04 12:47:25;;;;;;;5.50;2.42;;;13.40;66.80;;;;;;4970221;28;20035;-75
2020/12/04 12:49:56;;;;;;;4.85;2.85;;;13.30;66.80;;;;;;4968426;28;20043;-73
2020/12/04 12:52:22;;;;;;;3.40;2.08;;;13.40;66.80;;;;;;4948249;28;20055;-73
2020/12/04 12:54:48;;;;;;;3.38;2.10;;;13.40;66.80;;;;;;4956336;28;20041;-74
2020/12/04 12:57:16;;;;;;;4.28;2.22;;;13.40;66.80;;;;;;4974400;28;20035;-74
2020/12/04 12:59:43;;;;;;;3.55;2.50;;;13.40;66.80;;;;;;4960638;28;20026;-74
2020/12/04 13:02:13;;;;;;;4.45;2.58;;;13.40;66.80;;;;;;4980533;28;20039;-74
2020/12/04 13:04:40;;;;;;;4.20;2.10;;;13.40;66.80;;;;;;4956050;28;20051;-74
2020/12/04 13:07:13;;;;;;;3.60;2.15;;;13.40;66.80;;;;;;4974847;28;20057;-74
2020/12/04 13:09:43;;;;;;;5.82;2.45;;;13.40;66.80;;;;;;4977169;28;20034;-74
2020/12/04 13:12:12;;;;;;;6.40;2.65;;;13.40;66.80;;;;;;4959213;28;20081;-74
2020/12/04 13:14:42;;;;;;;3.97;2.40;;;13.40;66.70;;;;;;4978343;28;20097;-74
2020/12/04 13:17:08;;;;;;;3.40;2.03;;;13.40;66.70;;;;;;4977463;28;20039;-74
2020/12/04 13:19:34;;;;;;;4.43;2.08;;;13.40;66.80;;;;;;4976128;28;20031;-74
2020/12/04 13:22:08;;;;;;;7.85;2.55;;;13.40;66.80;;;;;;4959009;28;20027;-74